createdAt,value
2023-01-08T00:01:40.403Z,137.20
2023-01-08T00:04:29.031Z,133.82
2023-01-08T00:07:11.241Z,138.65
2023-01-08T00:10:00.043Z,134.70
2023-01-08T00:12:42.211Z,135.25
2023-01-08T00:15:31.857Z,128.98
2023-01-08T00:18:20.977Z,132.70
2023-01-08T00:21:09.929Z,133.25
2023-01-08T00:23:58.988Z,130.80
2023-01-08T00:26:47.969Z,128.43
2023-01-08T00:29:30.289Z,132.70
2023-01-08T00:32:19.029Z,128.65
2023-01-08T00:35:02.618Z,132.05
2023-01-08T00:37:52.923Z,128.80
2023-01-08T00:40:35.584Z,123.30
2023-01-08T00:43:29.975Z,127.55
2023-01-08T00:46:22.015Z,126.28
2023-01-08T00:49:04.217Z,124.65
2023-01-08T00:51:52.891Z,125.13
2023-01-08T00:54:36.327Z,128.40
2023-01-08T00:57:24.886Z,132.07
2023-01-08T01:00:07.313Z,135.52
2023-01-08T01:02:56.029Z,136.93
2023-01-08T01:05:38.339Z,138.20
2023-01-08T01:08:26.944Z,141.07
2023-01-08T01:11:19.913Z,143.40
2023-01-08T01:14:02.340Z,142.70
2023-01-08T01:16:51.959Z,142.88
2023-01-08T01:19:34.249Z,143.35
2023-01-08T01:22:22.972Z,142.98
2023-01-08T01:25:05.745Z,139.60
2023-01-08T01:27:54.966Z,133.57
2023-01-08T01:30:44.118Z,126.60
2023-01-08T01:33:26.243Z,123.13
2023-01-08T01:36:15.932Z,123.40
2023-01-08T01:39:00.399Z,125.63
2023-01-08T01:41:53.963Z,119.40
2023-01-08T01:44:44.465Z,115.00
2023-01-08T01:47:46.947Z,112.10
2023-01-08T01:50:46.969Z,112.85
2023-01-08T01:53:34.098Z,107.75
2023-01-08T01:56:24.341Z,108.65
2023-01-08T01:59:07.243Z,110.97
2023-01-08T02:01:57.071Z,109.63
2023-01-08T02:04:39.367Z,110.93
2023-01-08T02:08:05.872Z,115.80
2023-01-08T02:11:04.968Z,111.90
2023-01-08T02:13:51.230Z,112.10
2023-01-08T02:16:53.970Z,112.18
2023-01-08T02:19:48.248Z,114.85
2023-01-08T02:22:42.868Z,111.43
2023-01-08T02:25:31.293Z,115.70
2023-01-08T02:28:22.861Z,115.63
2023-01-08T02:31:06.366Z,110.05
2023-01-08T02:33:54.865Z,110.70
2023-01-08T02:36:50.863Z,110.00
2023-01-08T02:40:14.162Z,105.45
2023-01-08T02:43:26.846Z,109.45
2023-01-08T02:46:21.294Z,106.60
2023-01-08T02:49:11.859Z,104.82
2023-01-08T02:52:05.278Z,107.15
2023-01-08T02:54:50.013Z,109.17
2023-01-08T02:57:41.309Z,109.43
2023-01-08T03:00:23.936Z,110.15
2023-01-08T03:03:28.318Z,117.18
2023-01-08T03:06:21.857Z,134.98
2023-01-08T03:09:11.202Z,130.38
2023-01-08T03:12:07.880Z,135.05
2023-01-08T03:14:57.293Z,138.43
2023-01-08T03:17:50.894Z,136.18
2023-01-08T03:20:34.651Z,134.25
2023-01-08T03:23:25.815Z,135.68
2023-01-08T03:26:15.240Z,131.15
2023-01-08T03:29:01.898Z,131.00
2023-01-08T03:31:52.981Z,130.38
2023-01-08T03:34:38.260Z,127.07
2023-01-08T03:37:32.846Z,123.07
2023-01-08T03:40:25.794Z,125.18
2023-01-08T03:43:14.959Z,125.53
2023-01-08T03:46:11.207Z,123.28
2023-01-08T03:48:54.921Z,116.60
2023-01-08T03:51:54.220Z,117.25
2023-01-08T03:54:40.929Z,116.25
2023-01-08T03:57:23.531Z,117.45
2023-01-08T04:00:12.866Z,121.32
2023-01-08T04:03:03.227Z,117.45
2023-01-08T04:05:46.215Z,119.28
2023-01-08T04:08:34.977Z,121.28
2023-01-08T04:11:17.186Z,114.95
2023-01-08T04:14:05.875Z,114.13
2023-01-08T04:16:48.295Z,112.15
2023-01-08T04:19:36.929Z,111.22
2023-01-08T04:22:19.188Z,113.10
2023-01-08T04:25:07.897Z,108.82
2023-01-08T04:27:50.200Z,108.40
2023-01-08T04:30:38.925Z,112.18
2023-01-08T04:33:21.246Z,110.38
2023-01-08T04:36:10.981Z,107.80
2023-01-08T04:38:59.927Z,109.95
2023-01-08T04:41:48.260Z,112.38
2023-01-08T04:44:42.876Z,110.30
2023-01-08T04:47:25.140Z,110.30
2023-01-08T04:50:13.948Z,110.00
2023-01-08T04:53:02.207Z,110.63
2023-01-08T04:55:44.951Z,109.03
2023-01-08T04:58:33.167Z,109.70
2023-01-08T05:01:28.080Z,105.15
2023-01-08T05:04:12.203Z,107.25
2023-01-08T05:07:01.218Z,104.72
2023-01-08T05:09:49.273Z,110.13
2023-01-08T05:12:31.909Z,110.10
2023-01-08T05:15:20.200Z,110.28
2023-01-08T05:18:13.955Z,102.15
2023-01-08T05:20:56.728Z,103.32
2023-01-08T05:23:46.842Z,107.88
2023-01-08T05:26:35.869Z,104.15
2023-01-08T05:29:24.816Z,99.82
2023-01-08T05:32:22.158Z,103.88
2023-01-08T05:35:03.993Z,103.60
2023-01-08T05:37:52.202Z,104.97
2023-01-08T05:40:34.878Z,102.68
2023-01-08T05:43:17.207Z,107.95
2023-01-08T05:46:05.974Z,103.68
2023-01-08T05:48:54.874Z,106.82
2023-01-08T05:51:43.832Z,107.93
2023-01-08T05:54:32.181Z,104.55
2023-01-08T05:57:13.823Z,105.05
2023-01-08T06:00:02.135Z,102.43
2023-01-08T06:02:47.019Z,108.47
2023-01-08T06:05:36.417Z,107.05
2023-01-08T06:08:17.828Z,104.05
2023-01-08T06:11:07.779Z,103.70
2023-01-08T06:13:58.888Z,106.28
2023-01-08T06:16:48.233Z,100.72
2023-01-08T06:19:30.931Z,98.18
2023-01-08T06:22:19.222Z,104.88
2023-01-08T06:25:01.852Z,109.45
2023-01-08T06:27:50.937Z,113.35
2023-01-08T06:30:39.943Z,105.05
2023-01-08T06:33:29.182Z,100.40
2023-01-08T06:36:12.926Z,99.93
2023-01-08T06:39:01.242Z,104.20
2023-01-08T06:41:42.905Z,100.75
2023-01-08T06:44:37.762Z,95.35
2023-01-08T06:47:26.934Z,96.22
2023-01-08T06:50:09.290Z,95.28
2023-01-08T06:53:01.844Z,97.57
2023-01-08T06:55:45.163Z,100.13
2023-01-08T06:58:37.941Z,92.45
2023-01-08T07:01:24.354Z,95.53
2023-01-08T07:04:12.889Z,97.05
2023-01-08T07:07:02.871Z,94.43
2023-01-08T07:09:51.884Z,96.50
2023-01-08T07:12:34.128Z,86.38
2023-01-08T07:15:22.917Z,91.03
2023-01-08T07:18:07.007Z,92.43
2023-01-08T07:20:57.916Z,91.10
2023-01-08T07:23:42.949Z,91.88
2023-01-08T07:26:31.799Z,89.60
2023-01-08T07:29:20.907Z,87.28
2023-01-08T07:32:03.841Z,85.72
2023-01-08T07:34:52.825Z,89.32
2023-01-08T07:37:42.175Z,88.82
2023-01-08T07:40:24.825Z,91.57
2023-01-08T07:43:14.748Z,96.20
2023-01-08T07:46:09.828Z,93.65
2023-01-08T07:48:58.534Z,97.93
2023-01-08T07:51:41.891Z,96.38
2023-01-08T07:54:30.207Z,93.22
2023-01-08T07:57:12.889Z,90.32
2023-01-08T08:00:01.177Z,92.10
2023-01-08T08:02:43.972Z,89.93
2023-01-08T08:05:32.096Z,90.43
2023-01-08T08:08:18.869Z,92.03
2023-01-08T08:11:08.200Z,97.03
2023-01-08T08:13:54.186Z,90.63
2023-01-08T08:16:43.770Z,92.07
2023-01-08T08:19:32.781Z,89.50
2023-01-08T08:22:22.191Z,89.53
2023-01-08T08:25:04.833Z,88.88
2023-01-08T08:27:53.853Z,86.50
2023-01-08T08:30:37.173Z,84.72
2023-01-08T08:33:25.828Z,86.32
2023-01-08T08:36:08.167Z,84.30
2023-01-08T08:38:56.831Z,82.05
2023-01-08T08:41:39.122Z,79.40
2023-01-08T08:44:27.817Z,82.18
2023-01-08T08:47:10.403Z,79.60
2023-01-08T08:49:58.859Z,79.70
2023-01-08T08:52:48.782Z,78.30
2023-01-08T08:55:38.163Z,76.97
2023-01-08T08:58:21.865Z,77.32
2023-01-08T09:01:05.145Z,73.47
2023-01-08T09:03:53.876Z,75.70
2023-01-08T09:06:42.853Z,74.25
2023-01-08T09:09:25.209Z,76.78
2023-01-08T09:12:14.880Z,75.20
2023-01-08T09:14:58.070Z,72.82
2023-01-08T09:17:47.908Z,75.10
2023-01-08T09:20:31.191Z,74.45
2023-01-08T09:23:19.887Z,74.68
2023-01-08T09:26:11.228Z,75.70
2023-01-08T09:28:59.862Z,77.30
2023-01-08T09:31:48.958Z,76.50
2023-01-08T09:34:38.893Z,76.03
2023-01-08T09:37:28.221Z,73.50
2023-01-08T09:40:16.120Z,71.60
2023-01-08T09:43:10.709Z,72.68
2023-01-08T09:46:10.791Z,71.68
2023-01-08T09:48:54.954Z,71.47
2023-01-08T09:51:49.909Z,72.97
2023-01-08T09:54:39.114Z,69.05
2023-01-08T09:57:26.863Z,70.88
2023-01-08T10:00:29.257Z,72.25
2023-01-08T10:03:11.855Z,73.97
2023-01-08T10:06:01.096Z,78.22
2023-01-08T10:08:42.876Z,76.72
2023-01-08T10:11:27.987Z,77.20
2023-01-08T10:14:16.791Z,78.63
2023-01-08T10:17:22.861Z,80.97
2023-01-08T10:20:05.360Z,80.05
2023-01-08T10:22:57.968Z,86.20
2023-01-08T10:25:40.230Z,86.65
2023-01-08T10:28:40.102Z,84.35
2023-01-08T10:31:24.313Z,85.95
2023-01-08T10:34:18.810Z,84.32
2023-01-08T10:37:03.194Z,83.15
2023-01-08T10:40:02.823Z,81.45
2023-01-08T10:42:45.133Z,82.05
2023-01-08T10:45:42.866Z,82.07
2023-01-08T10:48:34.298Z,77.90
2023-01-08T10:51:23.865Z,78.57
2023-01-08T10:54:45.183Z,76.00
2023-01-08T10:57:40.797Z,71.75
2023-01-08T11:00:41.179Z,69.68
2023-01-08T11:03:39.856Z,69.55
2023-01-08T11:06:35.317Z,69.88
2023-01-08T11:09:35.885Z,70.15
2023-01-08T11:12:23.888Z,70.63
2023-01-08T11:15:14.907Z,70.20
2023-01-08T11:18:12.137Z,69.03
2023-01-08T11:20:55.817Z,70.57
2023-01-08T11:23:44.771Z,68.72
2023-01-08T11:26:36.863Z,68.40
2023-01-08T11:29:38.391Z,66.47
2023-01-08T11:32:58.152Z,68.90
2023-01-08T11:35:46.315Z,74.70
2023-01-08T11:38:34.817Z,74.32
2023-01-08T11:41:31.418Z,75.07
2023-01-08T11:44:53.843Z,73.78
2023-01-08T11:48:19.135Z,71.25
2023-01-08T11:51:21.913Z,71.88
2023-01-08T11:54:19.143Z,75.88
2023-01-08T11:57:27.889Z,71.97
2023-01-08T12:00:38.681Z,74.43
2023-01-08T12:03:45.863Z,76.00
2023-01-08T12:07:06.178Z,79.47
2023-01-08T12:09:54.895Z,81.03
2023-01-08T12:12:47.576Z,84.15
2023-01-08T12:15:49.837Z,83.47
2023-01-08T12:18:43.791Z,87.45
2023-01-08T12:21:42.120Z,83.53
2023-01-08T12:25:02.862Z,84.15
2023-01-08T12:28:06.782Z,85.43
2023-01-08T12:31:21.232Z,86.05
2023-01-08T12:34:25.165Z,91.82
2023-01-08T12:40:29.829Z,84.90
2023-01-08T12:43:30.884Z,87.60
2023-01-08T12:46:28.829Z,91.10
2023-01-08T12:49:27.724Z,92.65
2023-01-08T12:52:24.888Z,92.70
2023-01-08T12:55:24.708Z,93.57
2023-01-08T12:58:23.847Z,97.10
2023-01-08T13:01:26.002Z,95.70
2023-01-08T13:04:17.169Z,100.85
2023-01-08T13:07:06.813Z,97.10
2023-01-08T13:09:57.477Z,96.35
2023-01-08T13:12:51.836Z,96.50
2023-01-08T13:15:42.134Z,96.68
2023-01-08T13:18:27.846Z,96.57
2023-01-08T13:21:26.862Z,97.00
2023-01-08T13:24:40.879Z,96.35
2023-01-08T13:27:23.220Z,96.68
2023-01-08T13:30:11.778Z,98.40
2023-01-08T13:33:02.851Z,99.07
2023-01-08T13:35:51.089Z,100.40
2023-01-08T13:38:34.135Z,102.07
2023-01-08T13:42:12.334Z,101.10
2023-01-08T13:45:10.011Z,102.05
2023-01-08T13:47:59.832Z,103.60
2023-01-08T13:50:44.225Z,106.25
2023-01-08T13:53:32.868Z,106.43
2023-01-08T13:56:17.170Z,106.18
2023-01-08T13:59:16.917Z,104.75
2023-01-08T14:02:04.274Z,104.90
2023-01-08T14:08:31.180Z,104.22
2023-01-08T14:13:55.540Z,105.10
2023-01-08T14:16:44.951Z,108.35
2023-01-08T14:22:37.877Z,101.65
2023-01-08T14:25:27.895Z,101.80
2023-01-08T14:28:15.119Z,103.65
2023-01-08T14:31:05.867Z,102.88
2023-01-08T14:33:57.117Z,105.65
2023-01-08T14:39:45.097Z,103.75
2023-01-08T14:42:54.765Z,104.10
2023-01-08T14:45:40.373Z,103.00
2023-01-08T14:48:34.036Z,104.10
2023-01-08T14:51:21.497Z,105.57
2023-01-08T14:54:13.852Z,106.45
2023-01-08T14:57:07.706Z,106.65
2023-01-08T15:00:05.837Z,110.13
2023-01-08T15:02:48.157Z,108.70
2023-01-08T15:05:41.846Z,110.22
2023-01-08T15:08:34.213Z,107.95
2023-01-08T15:11:38.812Z,109.65
2023-01-08T15:14:30.792Z,111.13
2023-01-08T15:17:25.853Z,109.32
2023-01-08T15:20:08.109Z,109.85
2023-01-08T15:22:56.822Z,113.07
2023-01-08T15:25:52.745Z,113.03
2023-01-08T15:28:42.842Z,113.75
2023-01-08T15:31:39.039Z,113.93
2023-01-08T15:34:28.826Z,115.88
2023-01-08T15:37:11.179Z,113.88
2023-01-08T15:39:59.875Z,120.70
2023-01-08T15:43:00.317Z,113.63
2023-01-08T15:45:53.882Z,113.93
2023-01-08T15:48:48.659Z,115.90
2023-01-08T15:51:42.118Z,114.95
2023-01-08T15:54:24.145Z,120.03
2023-01-08T15:57:12.857Z,117.18
2023-01-08T15:59:55.398Z,119.30
2023-01-08T16:02:54.945Z,119.88
2023-01-08T16:05:38.225Z,120.22
2023-01-08T16:08:26.787Z,126.65
2023-01-08T16:11:15.869Z,119.55
2023-01-08T16:14:04.919Z,121.75
2023-01-08T16:16:47.351Z,122.82
2023-01-08T16:19:38.815Z,126.05
2023-01-08T16:22:27.899Z,121.13
2023-01-08T16:25:18.163Z,120.75
2023-01-08T16:28:00.752Z,122.13
2023-01-08T16:30:44.213Z,124.18
2023-01-08T16:33:32.892Z,129.77
2023-01-08T16:36:21.811Z,130.85
2023-01-08T16:39:04.330Z,131.88
2023-01-08T16:41:52.783Z,130.70
2023-01-08T16:44:36.140Z,132.20
2023-01-08T16:47:24.904Z,136.80
2023-01-08T16:50:20.669Z,134.93
2023-01-08T16:53:12.192Z,138.70
2023-01-08T16:55:54.382Z,136.88
2023-01-08T16:58:43.910Z,141.45
2023-01-08T17:01:26.170Z,138.57
2023-01-08T17:04:14.738Z,139.88
2023-01-08T17:06:58.214Z,131.52
2023-01-08T17:09:47.894Z,135.07
2023-01-08T17:12:30.885Z,142.07
2023-01-08T17:15:19.860Z,138.85
2023-01-08T17:18:08.712Z,138.20
2023-01-08T17:21:01.847Z,140.80
2023-01-08T17:23:44.635Z,141.80
2023-01-08T17:26:33.951Z,139.20
2023-01-08T17:29:16.140Z,140.65
2023-01-08T17:32:04.845Z,141.23
2023-01-08T17:34:47.116Z,136.25
2023-01-08T17:37:38.754Z,139.95
2023-01-08T17:40:21.205Z,130.70
2023-01-08T17:43:09.958Z,141.57
2023-01-08T17:45:53.024Z,139.55
2023-01-08T17:48:50.769Z,136.43
2023-01-08T17:51:34.476Z,134.52
2023-01-08T17:54:27.779Z,139.85
2023-01-08T17:57:10.250Z,134.68
2023-01-08T17:59:59.771Z,139.43
2023-01-08T18:02:48.172Z,143.05
2023-01-08T18:05:30.776Z,142.38
2023-01-08T18:08:20.266Z,144.60
2023-01-08T18:11:02.116Z,148.07
2023-01-08T18:13:51.073Z,146.50
2023-01-08T18:16:34.013Z,144.82
2023-01-08T18:19:23.078Z,143.80
2023-01-08T18:22:05.743Z,144.32
2023-01-08T18:24:47.983Z,144.77
2023-01-08T18:27:36.823Z,142.38
2023-01-08T18:30:26.281Z,140.40
2023-01-08T18:33:07.805Z,141.52
2023-01-08T18:35:56.185Z,145.23
2023-01-08T18:38:38.823Z,143.45
2023-01-08T18:41:47.625Z,143.53
2023-01-08T18:44:30.903Z,137.43
2023-01-08T18:47:19.088Z,138.18
2023-01-08T18:50:15.873Z,133.00
2023-01-08T18:53:05.641Z,130.93
2023-01-08T18:55:48.723Z,126.30
2023-01-08T18:58:38.189Z,125.30
2023-01-08T19:01:20.948Z,118.13
2023-01-08T19:04:03.549Z,122.55
2023-01-08T19:06:52.804Z,120.05
2023-01-08T19:09:41.156Z,118.32
2023-01-08T19:12:23.764Z,119.07
2023-01-08T19:15:13.442Z,116.40
2023-01-08T19:17:56.827Z,116.22
2023-01-08T19:20:51.110Z,118.63
2023-01-08T19:23:33.758Z,116.13
2023-01-08T19:26:23.135Z,119.63
2023-01-08T19:29:05.880Z,119.50
2023-01-08T19:31:55.225Z,116.80
2023-01-08T19:34:37.907Z,115.65
2023-01-08T19:37:27.576Z,118.10
2023-01-08T19:40:10.730Z,117.88
2023-01-08T19:43:17.465Z,111.07
2023-01-08T19:45:59.935Z,113.32
2023-01-08T19:48:55.654Z,114.00
2023-01-08T19:51:44.780Z,111.43
2023-01-08T19:54:27.293Z,108.88
2023-01-08T19:57:15.763Z,109.22
2023-01-08T19:59:58.269Z,112.05
2023-01-08T20:02:53.772Z,110.28
2023-01-08T20:05:36.044Z,112.50
2023-01-08T20:08:24.811Z,105.43
2023-01-08T20:11:19.788Z,108.32
2023-01-08T20:14:09.199Z,107.82
2023-01-08T20:16:52.089Z,109.45
2023-01-08T20:19:40.208Z,108.75
2023-01-08T20:22:22.804Z,108.15
2023-01-08T20:25:06.088Z,111.63
2023-01-08T20:27:54.709Z,110.25
2023-01-08T20:30:43.755Z,109.07
2023-01-08T20:33:26.079Z,105.72
2023-01-08T20:36:23.808Z,110.40
2023-01-08T20:39:13.048Z,109.32
2023-01-08T20:42:04.671Z,108.90
2023-01-08T20:44:46.977Z,115.63
2023-01-08T20:47:35.814Z,114.97
2023-01-08T20:50:26.111Z,115.03
2023-01-08T20:53:07.815Z,116.05
2023-01-08T20:55:50.225Z,115.97
2023-01-08T20:58:38.715Z,110.75
2023-01-08T21:01:32.505Z,113.07
2023-01-08T21:04:18.868Z,110.25
2023-01-08T21:07:01.410Z,111.15
2023-01-08T21:09:51.745Z,110.47
2023-01-08T21:12:34.096Z,110.75
2023-01-08T21:15:23.783Z,106.30
2023-01-08T21:18:06.111Z,108.78
2023-01-08T21:20:54.702Z,108.05
2023-01-08T21:23:36.947Z,106.80
2023-01-08T21:26:26.708Z,105.27
2023-01-08T21:29:10.140Z,110.43
2023-01-08T21:31:58.867Z,110.28
2023-01-08T21:34:47.681Z,107.18
2023-01-08T21:37:32.390Z,109.22
2023-01-08T21:40:22.796Z,106.03
2023-01-08T21:43:23.187Z,110.68
2023-01-08T21:46:11.835Z,107.35
2023-01-08T21:48:55.104Z,110.82
2023-01-08T21:52:01.787Z,109.82
2023-01-08T21:54:44.094Z,111.75
2023-01-08T21:57:35.696Z,109.60
2023-01-08T22:00:26.772Z,108.45
2023-01-08T22:03:15.811Z,109.05
2023-01-08T22:06:09.066Z,110.15
2023-01-08T22:09:01.683Z,110.15
2023-01-08T22:11:44.078Z,113.22
2023-01-08T22:14:32.784Z,108.82
2023-01-08T22:17:15.543Z,109.07
2023-01-08T22:20:05.737Z,114.55
2023-01-08T22:22:48.179Z,112.95
2023-01-08T22:25:36.735Z,114.32
2023-01-08T22:28:18.951Z,114.60
2023-01-08T22:31:12.792Z,115.82
2023-01-08T22:33:55.323Z,114.30
2023-01-08T22:36:43.712Z,115.25
2023-01-08T22:39:25.961Z,116.40
2023-01-08T22:42:14.687Z,122.93
2023-01-08T22:44:58.003Z,125.53
2023-01-08T22:47:46.659Z,127.05
2023-01-08T22:50:29.077Z,125.00
2023-01-08T22:53:17.723Z,128.05
2023-01-08T22:56:00.246Z,127.07
2023-01-08T22:58:49.715Z,128.35
2023-01-08T23:01:34.119Z,128.85
2023-01-08T23:04:22.715Z,130.00
2023-01-08T23:07:05.019Z,133.00
2023-01-08T23:09:54.732Z,132.43
2023-01-08T23:12:36.995Z,133.48
2023-01-08T23:15:26.749Z,132.05
2023-01-08T23:18:09.060Z,134.68
2023-01-08T23:20:57.783Z,137.98
2023-01-08T23:23:40.064Z,139.82
2023-01-08T23:26:32.755Z,143.10
2023-01-08T23:29:15.013Z,148.68
2023-01-08T23:32:06.658Z,144.45
2023-01-08T23:34:49.042Z,142.68
2023-01-08T23:37:37.657Z,141.02
2023-01-08T23:40:20.021Z,138.93
2023-01-08T23:43:08.713Z,137.75
2023-01-08T23:45:51.025Z,136.10
2023-01-08T23:48:39.730Z,136.10
2023-01-08T23:51:28.999Z,137.48
2023-01-08T23:54:11.752Z,138.25
2023-01-08T23:57:00.731Z,143.60
2023-01-08T23:59:49.781Z,140.63
